Terminal Aerodrome Forecast
Issued by NWS Amarillo, TX

Home | Current Version | Previous Version | Text Only | Print | Product List | Glossary On
Versions: 1 2 3 4 5 6 7 8 9 10 11 12 13 14 15 16 17
304
FTUS44 KAMA 291124
TAFDHT
TAF
KDHT 291124Z 2912/3012 01028G38KT 3SM -SHRA BR OVC006
      TEMPO 2914/2918 1SM RASN BR OVC010
     FM291800 36026G37KT 6SM -SHRA BR OVC013
      TEMPO 2918/2920 4SM -SHRA BR BKN006
     FM300300 32015KT P6SM SKC=

USA.gov is the U.S. government's official web portal to all federal, state and local government web resources and services.